Time;durP1;ratioP1;P1;durP2;ratioP2;P2;SDS_P1;SDS_P2;PMS_P1;PMS_P2;Temp;Humidity;BMP_temperature;BMP_pressure;BME280_temperature;BME280_humidity;BME280_pressure;Samples;Min_cycle;Max_cycle;Signal;HPM_P1;HPM_P2
2019/08/02 00:00:03;;;;;;;2.43;1.92;;;;;;;23.32;52.76;100495.88;;;;-59
2019/08/02 00:03:03;;;;;;;2.32;2.00;;;;;;;23.32;52.77;100496.72;;;;-61
2019/08/02 00:06:03;;;;;;;2.23;1.97;;;;;;;23.33;52.79;100500.19;;;;-53
2019/08/02 00:09:03;;;;;;;2.21;1.89;;;;;;;23.32;52.81;100497.56;;;;-54
2019/08/02 00:12:03;;;;;;;2.12;1.96;;;;;;;23.32;52.80;100495.70;;;;-61
2019/08/02 00:15:03;;;;;;;2.22;2.04;;;;;;;23.32;52.84;100486.91;;;;-62
2019/08/02 00:18:03;;;;;;;2.14;1.94;;;;;;;23.32;52.87;100481.35;;;;-54
2019/08/02 00:21:03;;;;;;;2.21;2.01;;;;;;;23.31;52.87;100479.91;;;;-62
2019/08/02 00:24:03;;;;;;;2.37;2.17;;;;;;;23.31;52.87;100477.75;;;;-59
2019/08/02 00:27:03;;;;;;;2.09;1.92;;;;;;;23.31;52.89;100479.33;;;;-52
2019/08/02 00:30:03;;;;;;;2.14;1.94;;;;;;;23.30;52.87;100477.37;;;;-54
2019/08/02 00:33:03;;;;;;;2.59;2.00;;;;;;;23.31;52.91;100476.77;;;;-55
2019/08/02 00:36:03;;;;;;;2.38;2.15;;;;;;;23.31;52.89;100471.34;;;;-55
2019/08/02 00:39:03;;;;;;;2.27;2.07;;;;;;;23.31;52.93;100468.21;;;;-62
2019/08/02 00:42:03;;;;;;;2.20;2.00;;;;;;;23.31;52.92;100466.52;;;;-61
2019/08/02 00:45:03;;;;;;;2.06;1.94;;;;;;;23.30;52.92;100470.03;;;;-60
2019/08/02 00:48:03;;;;;;;2.25;2.04;;;;;;;23.30;52.96;100469.62;;;;-61
2019/08/02 00:51:03;;;;;;;2.10;1.93;;;;;;;23.30;52.93;100470.51;;;;-61
2019/08/02 00:54:03;;;;;;;2.19;1.99;;;;;;;23.29;52.98;100471.02;;;;-59
2019/08/02 00:57:03;;;;;;;2.00;1.90;;;;;;;23.30;52.96;100476.00;;;;-60
2019/08/02 01:00:03;;;;;;;2.15;1.95;;;;;;;23.29;53.00;100475.66;;;;-61
2019/08/02 01:03:03;;;;;;;2.27;2.07;;;;;;;23.30;53.02;100475.91;;;;-52
2019/08/02 01:12:11;;;;;;;1.98;1.82;;;;;;;23.29;53.03;100468.89;;;;-52
2019/08/02 01:15:11;;;;;;;2.10;1.94;;;;;;;23.29;53.05;100465.19;;;;-60
2019/08/02 01:18:11;;;;;;;2.23;2.02;;;;;;;23.29;53.03;100467.91;;;;-61
2019/08/02 01:21:11;;;;;;;1.84;1.74;;;;;;;23.28;53.07;100462.89;;;;-61
2019/08/02 01:24:11;;;;;;;2.13;1.91;;;;;;;23.28;53.08;100461.05;;;;-59
2019/08/02 01:27:11;;;;;;;2.08;1.89;;;;;;;23.28;53.06;100462.19;;;;-61
2019/08/02 01:30:11;;;;;;;2.07;1.93;;;;;;;23.28;53.13;100464.99;;;;-61
2019/08/02 01:33:11;;;;;;;2.07;1.87;;;;;;;23.28;53.09;100468.36;;;;-59
2019/08/02 01:36:11;;;;;;;1.80;1.70;;;;;;;23.28;53.10;100465.56;;;;-61
2019/08/02 01:39:11;;;;;;;2.05;1.85;;;;;;;23.28;53.11;100464.83;;;;-61
2019/08/02 01:42:11;;;;;;;1.96;1.81;;;;;;;23.27;53.13;100465.39;;;;-54
2019/08/02 01:45:11;;;;;;;2.06;1.89;;;;;;;23.27;53.13;100461.08;;;;-54
2019/08/02 01:48:11;;;;;;;2.13;1.93;;;;;;;23.27;53.18;100455.52;;;;-60
2019/08/02 01:51:11;;;;;;;2.87;1.87;;;;;;;23.27;53.13;100453.84;;;;-52
2019/08/02 01:54:11;;;;;;;2.05;1.89;;;;;;;23.26;53.14;100450.61;;;;-61
2019/08/02 01:57:11;;;;;;;1.85;1.75;;;;;;;23.26;53.17;100447.34;;;;-54
2019/08/02 02:00:11;;;;;;;2.08;1.90;;;;;;;23.26;53.15;100449.02;;;;-54
2019/08/02 02:03:11;;;;;;;2.03;1.89;;;;;;;23.26;53.18;100446.84;;;;-60
2019/08/02 02:06:11;;;;;;;2.21;2.01;;;;;;;23.26;53.17;100443.46;;;;-61
2019/08/02 02:09:11;;;;;;;1.93;1.83;;;;;;;23.26;53.19;100448.75;;;;-54
2019/08/02 02:12:11;;;;;;;1.83;1.73;;;;;;;23.26;53.22;100442.19;;;;-61
2019/08/02 02:15:11;;;;;;;2.14;1.70;;;;;;;23.26;53.21;100442.28;;;;-59
2019/08/02 02:18:11;;;;;;;2.10;1.90;;;;;;;23.26;53.22;100442.19;;;;-60
2019/08/02 02:21:11;;;;;;;1.87;1.77;;;;;;;23.26;53.24;100441.00;;;;-54
2019/08/02 02:28:11;;;;;;;1.83;1.73;;;;;;;23.25;53.26;100435.75;;;;-60
2019/08/02 02:31:11;;;;;;;1.91;1.81;;;;;;;23.25;53.27;100433.39;;;;-61
2019/08/02 02:34:11;;;;;;;1.92;1.82;;;;;;;23.25;53.28;100438.38;;;;-59
2019/08/02 02:37:11;;;;;;;1.79;1.69;;;;;;;23.24;53.29;100430.94;;;;-52
2019/08/02 02:40:11;;;;;;;1.95;1.80;;;;;;;23.24;53.30;100430.59;;;;-60
2019/08/02 02:43:11;;;;;;;1.81;1.70;;;;;;;23.24;53.29;100429.25;;;;-54
2019/08/02 02:46:11;;;;;;;2.11;1.91;;;;;;;23.24;53.30;100431.34;;;;-61
2019/08/02 02:49:11;;;;;;;1.81;1.71;;;;;;;23.24;53.32;100432.28;;;;-52
2019/08/02 02:52:11;;;;;;;2.06;1.86;;;;;;;23.24;53.35;100432.02;;;;-59
2019/08/02 02:55:11;;;;;;;1.82;1.72;;;;;;;23.23;53.35;100431.24;;;;-54
2019/08/02 02:58:11;;;;;;;1.91;1.81;;;;;;;23.23;53.36;100433.44;;;;-52
2019/08/02 03:01:11;;;;;;;1.75;1.65;;;;;;;23.23;53.35;100429.97;;;;-61
2019/08/02 03:04:11;;;;;;;2.05;1.80;;;;;;;23.23;53.32;100427.03;;;;-61
2019/08/02 03:07:11;;;;;;;1.99;1.87;;;;;;;23.23;53.35;100430.47;;;;-61
2019/08/02 03:10:11;;;;;;;2.00;1.81;;;;;;;23.23;53.40;100424.58;;;;-52
2019/08/02 03:13:10;;;;;;;1.88;1.73;;;;;;;23.22;53.35;100420.27;;;;-61
2019/08/02 03:16:11;;;;;;;1.79;1.69;;;;;;;23.23;53.35;100418.61;;;;-61
2019/08/02 03:19:11;;;;;;;1.80;1.70;;;;;;;23.22;53.35;100415.38;;;;-54
2019/08/02 03:22:11;;;;;;;1.85;1.75;;;;;;;23.22;53.36;100415.11;;;;-54
2019/08/02 03:25:11;;;;;;;1.80;1.70;;;;;;;23.22;53.40;100415.78;;;;-60
2019/08/02 03:28:11;;;;;;;1.82;1.72;;;;;;;23.22;53.41;100413.35;;;;-61
2019/08/02 03:31:11;;;;;;;1.80;1.70;;;;;;;23.22;53.46;100416.29;;;;-59
2019/08/02 03:34:11;;;;;;;1.89;1.75;;;;;;;23.22;53.40;100417.30;;;;-59
2019/08/02 03:37:11;;;;;;;1.98;1.80;;;;;;;23.21;53.41;100416.02;;;;-54
2019/08/02 03:40:11;;;;;;;1.81;1.71;;;;;;;23.21;53.43;100415.08;;;;-60
2019/08/02 03:43:11;;;;;;;1.83;1.71;;;;;;;23.21;53.39;100412.38;;;;-54
2019/08/02 03:46:11;;;;;;;1.78;1.68;;;;;;;23.21;53.41;100414.57;;;;-60
2019/08/02 03:49:11;;;;;;;4.18;2.39;;;;;;;23.04;49.59;100408.66;;;;-61
2019/08/02 03:52:11;;;;;;;4.35;2.35;;;;;;;22.70;48.82;100413.09;;;;-63
2019/08/02 03:55:11;;;;;;;2.98;2.67;;;;;;;22.43;48.99;100409.43;;;;-56
2019/08/02 03:58:11;;;;;;;3.53;2.43;;;;;;;22.31;49.23;100408.75;;;;-56
2019/08/02 04:01:11;;;;;;;3.45;2.41;;;;;;;22.08;49.56;100406.52;;;;-56
2019/08/02 04:04:11;;;;;;;2.67;2.47;;;;;;;22.04;49.76;100410.92;;;;-52
2019/08/02 04:07:11;;;;;;;3.81;2.49;;;;;;;21.90;50.06;100409.95;;;;-57
2019/08/02 04:10:11;;;;;;;2.99;2.57;;;;;;;21.83;50.09;100408.97;;;;-63
2019/08/02 04:13:11;;;;;;;3.49;2.55;;;;;;;21.78;50.40;100409.30;;;;-62
2019/08/02 04:16:11;;;;;;;2.96;2.61;;;;;;;21.71;50.52;100416.63;;;;-63
2019/08/02 04:19:11;;;;;;;4.14;2.55;;;;;;;21.63;50.75;100414.33;;;;-63
2019/08/02 04:22:11;;;;;;;4.89;2.61;;;;;;;21.56;50.88;100411.91;;;;-53
2019/08/02 04:25:11;;;;;;;3.15;2.39;;;;;;;21.57;50.75;100412.88;;;;-55
2019/08/02 04:28:10;;;;;;;4.97;2.85;;;;;;;21.51;51.04;100407.59;;;;-51
2019/08/02 04:31:11;;;;;;;5.28;2.79;;;;;;;21.48;51.23;100406.08;;;;-53
2019/08/02 04:34:11;;;;;;;3.93;2.86;;;;;;;21.42;51.45;100402.40;;;;-53
2019/08/02 04:37:11;;;;;;;3.87;2.82;;;;;;;21.39;51.50;100398.39;;;;-53
2019/08/02 04:40:11;;;;;;;3.62;2.53;;;;;;;21.38;51.63;100401.62;;;;-53
2019/08/02 04:43:11;;;;;;;5.65;2.73;;;;;;;21.32;51.76;100404.86;;;;-53
2019/08/02 04:46:11;;;;;;;3.65;2.61;;;;;;;21.26;51.87;100409.08;;;;-53
2019/08/02 04:49:11;;;;;;;3.62;2.55;;;;;;;21.27;51.85;100412.20;;;;-53
2019/08/02 04:52:11;;;;;;;3.98;2.81;;;;;;;21.17;51.96;100414.73;;;;-60
2019/08/02 04:55:11;;;;;;;3.97;2.67;;;;;;;21.21;51.92;100421.49;;;;-59
2019/08/02 04:58:11;;;;;;;3.78;2.53;;;;;;;21.17;52.03;100415.91;;;;-51
2019/08/02 05:01:11;;;;;;;3.31;2.77;;;;;;;21.16;51.85;100422.02;;;;-52
2019/08/02 05:04:33;;;;;;;4.38;2.70;;;;;;;21.15;51.86;100429.37;;;;-51
2019/08/02 05:07:11;;;;;;;4.27;2.91;;;;;;;21.15;51.95;100431.69;;;;-51
2019/08/02 05:10:11;;;;;;;6.07;2.75;;;;;;;21.17;52.25;100439.08;;;;-51
2019/08/02 05:13:11;;;;;;;10.35;2.82;;;;;;;21.16;52.32;100442.73;;;;-51
2019/08/02 05:16:11;;;;;;;7.51;2.81;;;;;;;21.16;52.30;100444.42;;;;-51
2019/08/02 05:19:11;;;;;;;5.41;2.89;;;;;;;21.08;52.25;100445.46;;;;-50
2019/08/02 05:22:11;;;;;;;3.53;2.82;;;;;;;21.05;52.45;100442.33;;;;-51
2019/08/02 05:25:11;;;;;;;4.08;2.85;;;;;;;21.02;52.69;100441.81;;;;-52
2019/08/02 05:28:11;;;;;;;4.41;2.85;;;;;;;21.00;52.66;100442.51;;;;-51
2019/08/02 05:31:11;;;;;;;3.86;2.85;;;;;;;21.00;52.85;100447.44;;;;-52
2019/08/02 05:34:11;;;;;;;48.04;4.70;;;;;;;21.04;52.98;100447.73;;;;-50
2019/08/02 05:37:11;;;;;;;6.33;3.00;;;;;;;21.01;52.91;100446.74;;;;-51
2019/08/02 05:40:11;;;;;;;11.86;3.17;;;;;;;21.02;53.00;100449.97;;;;-51
2019/08/02 05:43:11;;;;;;;8.31;3.09;;;;;;;20.97;52.75;100453.64;;;;-52
2019/08/02 05:46:11;;;;;;;4.39;2.94;;;;;;;20.98;52.63;100452.23;;;;-52
2019/08/02 05:49:11;;;;;;;6.21;2.89;;;;;;;21.01;52.63;100452.34;;;;-51
2019/08/02 05:52:11;;;;;;;6.25;3.07;;;;;;;21.07;52.87;100455.23;;;;-48
2019/08/02 05:55:11;;;;;;;4.31;2.97;;;;;;;21.01;53.27;100458.33;;;;-48
2019/08/02 05:58:11;;;;;;;5.97;2.90;;;;;;;20.99;53.46;100459.93;;;;-48
2019/08/02 06:01:11;;;;;;;5.35;2.99;;;;;;;21.00;53.54;100459.70;;;;-48
2019/08/02 06:04:11;;;;;;;3.54;2.72;;;;;;;20.98;53.48;100461.88;;;;-48
2019/08/02 06:07:11;;;;;;;4.99;2.80;;;;;;;20.96;53.34;100461.49;;;;-47
2019/08/02 06:10:11;;;;;;;3.25;2.75;;;;;;;20.96;53.30;100453.77;;;;-48
2019/08/02 06:13:11;;;;;;;5.18;3.04;;;;;;;20.93;53.34;100454.06;;;;-48
2019/08/02 06:16:11;;;;;;;4.31;2.89;;;;;;;20.95;53.03;100457.39;;;;-48
2019/08/02 06:19:11;;;;;;;3.74;3.10;;;;;;;20.95;53.01;100458.27;;;;-48
2019/08/02 06:22:11;;;;;;;5.93;2.92;;;;;;;20.97;53.06;100455.16;;;;-48
2019/08/02 06:25:11;;;;;;;4.71;3.07;;;;;;;20.96;53.21;100453.56;;;;-48
2019/08/02 06:28:11;;;;;;;3.51;2.89;;;;;;;20.98;53.31;100451.13;;;;-48
2019/08/02 06:31:11;;;;;;;4.35;2.90;;;;;;;20.94;53.29;100452.08;;;;-48
2019/08/02 06:34:11;;;;;;;4.33;2.91;;;;;;;20.94;53.30;100454.53;;;;-48
2019/08/02 06:37:11;;;;;;;7.77;2.99;;;;;;;20.97;53.30;100455.39;;;;-48
2019/08/02 06:40:10;;;;;;;7.49;3.07;;;;;;;20.98;53.34;100454.75;;;;-48
2019/08/02 06:43:10;;;;;;;7.09;3.43;;;;;;;20.99;53.41;100454.02;;;;-47
2019/08/02 06:46:11;;;;;;;4.75;3.31;;;;;;;21.04;53.43;100458.67;;;;-48
2019/08/02 06:49:11;;;;;;;5.73;3.29;;;;;;;21.06;53.43;100462.01;;;;-47
2019/08/02 06:52:11;;;;;;;8.15;3.76;;;;;;;21.09;53.39;100462.52;;;;-48
2019/08/02 06:55:11;;;;;;;4.94;3.79;;;;;;;21.09;53.76;100463.06;;;;-47
2019/08/02 06:58:11;;;;;;;5.57;3.83;;;;;;;21.10;54.12;100466.06;;;;-47
2019/08/02 07:01:11;;;;;;;8.63;3.97;;;;;;;21.16;53.60;100458.76;;;;-48
2019/08/02 07:04:11;;;;;;;5.96;3.96;;;;;;;21.17;53.58;100458.73;;;;-49
2019/08/02 07:07:11;;;;;;;6.56;4.21;;;;;;;21.20;53.60;100457.50;;;;-50
2019/08/02 07:10:11;;;;;;;4.52;3.71;;;;;;;21.23;54.08;100454.32;;;;-51
2019/08/02 07:13:11;;;;;;;5.77;4.19;;;;;;;21.27;53.91;100456.05;;;;-51
2019/08/02 07:16:11;;;;;;;6.58;4.13;;;;;;;21.28;53.87;100454.44;;;;-51
2019/08/02 07:19:18;;;;;;;6.47;4.27;;;;;;;21.34;53.74;100455.64;;;;-49
2019/08/02 07:22:14;;;;;;;15.99;4.43;;;;;;;21.38;53.94;100454.03;;;;-49
2019/08/02 07:25:11;;;;;;;8.82;4.03;;;;;;;21.43;53.80;100455.02;;;;-51
2019/08/02 07:28:11;;;;;;;11.26;4.11;;;;;;;21.49;53.59;100452.75;;;;-49
2019/08/02 07:31:11;;;;;;;7.81;3.67;;;;;;;21.54;53.63;100456.53;;;;-49
2019/08/02 07:34:11;;;;;;;6.59;3.55;;;;;;;21.59;53.47;100456.74;;;;-57
2019/08/02 07:37:11;;;;;;;7.73;3.45;;;;;;;21.63;53.41;100455.55;;;;-57
2019/08/02 07:40:11;;;;;;;6.91;3.59;;;;;;;21.67;53.30;100456.09;;;;-50
2019/08/02 07:43:11;;;;;;;7.50;3.22;;;;;;;21.71;53.23;100452.03;;;;-51
2019/08/02 07:46:11;;;;;;;4.63;3.23;;;;;;;21.74;53.19;100448.50;;;;-51
2019/08/02 07:49:11;;;;;;;4.72;3.21;;;;;;;21.75;53.12;100448.03;;;;-57
2019/08/02 07:52:11;;;;;;;7.23;3.28;;;;;;;21.78;53.13;100448.75;;;;-58
2019/08/02 07:55:10;;;;;;;3.58;3.03;;;;;;;21.81;53.05;100450.27;;;;-57
2019/08/02 07:58:10;;;;;;;5.90;3.13;;;;;;;21.82;53.04;100445.76;;;;-57
2019/08/02 08:01:10;;;;;;;6.67;3.27;;;;;;;21.85;53.00;100446.20;;;;-57
2019/08/02 08:04:11;;;;;;;4.50;2.99;;;;;;;21.85;52.99;100442.06;;;;-57
2019/08/02 08:07:11;;;;;;;4.73;3.18;;;;;;;21.86;53.00;100441.86;;;;-56
2019/08/02 08:10:11;;;;;;;3.85;3.09;;;;;;;21.88;52.94;100441.59;;;;-57
2019/08/02 08:13:11;;;;;;;4.47;3.11;;;;;;;21.89;53.00;100441.80;;;;-56
2019/08/02 08:16:10;;;;;;;4.05;3.17;;;;;;;21.90;52.95;100441.33;;;;-57
2019/08/02 08:19:11;;;;;;;5.69;3.18;;;;;;;21.92;52.93;100444.55;;;;-59
2019/08/02 08:22:11;;;;;;;3.91;2.83;;;;;;;21.93;52.90;100443.72;;;;-59
2019/08/02 08:25:11;;;;;;;4.23;3.00;;;;;;;21.95;52.92;100442.34;;;;-59
2019/08/02 08:28:11;;;;;;;3.04;2.65;;;;;;;21.96;52.85;100437.94;;;;-59
2019/08/02 08:31:11;;;;;;;4.86;2.93;;;;;;;21.98;52.87;100439.92;;;;-59
2019/08/02 08:34:11;;;;;;;4.91;2.85;;;;;;;21.99;52.90;100439.17;;;;-59
2019/08/02 08:37:10;;;;;;;3.85;3.03;;;;;;;22.00;52.89;100439.38;;;;-59
2019/08/02 08:40:10;;;;;;;3.57;2.91;;;;;;;22.01;52.89;100442.00;;;;-59
2019/08/02 08:43:10;;;;;;;4.93;2.83;;;;;;;22.02;52.82;100434.73;;;;-59
2019/08/02 08:46:11;;;;;;;4.31;2.85;;;;;;;22.03;52.81;100437.80;;;;-59
2019/08/02 08:49:11;;;;;;;3.91;2.99;;;;;;;22.04;52.85;100440.96;;;;-59
2019/08/02 08:52:11;;;;;;;4.31;2.91;;;;;;;22.05;52.82;100442.34;;;;-59
2019/08/02 08:55:10;;;;;;;4.90;2.81;;;;;;;22.06;52.81;100441.59;;;;-58
2019/08/02 08:58:10;;;;;;;3.88;2.81;;;;;;;22.07;52.82;100443.82;;;;-58
2019/08/02 09:01:11;;;;;;;3.41;2.80;;;;;;;22.08;52.81;100445.37;;;;-58
2019/08/02 09:04:11;;;;;;;3.79;2.80;;;;;;;22.08;52.80;100447.99;;;;-59
2019/08/02 09:07:11;;;;;;;4.49;2.85;;;;;;;22.12;53.33;100448.27;;;;-50
2019/08/02 09:10:11;;;;;;;5.33;3.12;;;;;;;22.15;53.24;100448.59;;;;-50
2019/08/02 09:13:10;;;;;;;3.75;2.85;;;;;;;22.17;53.15;100444.89;;;;-50
2019/08/02 09:16:11;;;;;;;4.97;2.93;;;;;;;22.19;53.35;100439.14;;;;-50
2019/08/02 09:19:11;;;;;;;5.88;2.79;;;;;;;22.21;53.46;100438.16;;;;-50
2019/08/02 09:22:11;;;;;;;5.07;2.77;;;;;;;22.25;53.40;100444.48;;;;-50
2019/08/02 09:25:11;;;;;;;3.87;2.74;;;;;;;22.27;53.42;100440.85;;;;-50
2019/08/02 09:28:11;;;;;;;4.85;2.84;;;;;;;22.30;53.42;100439.94;;;;-50
2019/08/02 09:31:11;;;;;;;4.65;2.59;;;;;;;22.32;53.47;100439.50;;;;-52
2019/08/02 09:34:10;;;;;;;3.89;2.65;;;;;;;22.35;53.47;100438.95;;;;-52
2019/08/02 09:37:11;;;;;;;4.77;2.55;;;;;;;22.37;53.48;100443.39;;;;-51
2019/08/02 09:40:11;;;;;;;4.27;2.65;;;;;;;22.39;53.56;100442.75;;;;-50
2019/08/02 09:43:10;;;;;;;4.99;2.82;;;;;;;22.41;53.58;100440.23;;;;-63
2019/08/02 09:46:11;;;;;;;5.42;2.70;;;;;;;22.43;53.57;100434.57;;;;-57
2019/08/02 09:49:11;;;;;;;3.37;2.53;;;;;;;22.44;53.69;100432.52;;;;-56
2019/08/02 09:52:11;;;;;;;3.51;2.35;;;;;;;22.46;53.65;100433.39;;;;-56
2019/08/02 09:55:11;;;;;;;5.07;2.69;;;;;;;22.47;53.64;100436.31;;;;-58
2019/08/02 09:58:10;;;;;;;3.45;2.65;;;;;;;22.49;53.66;100436.45;;;;-62
2019/08/02 10:01:10;;;;;;;3.43;2.57;;;;;;;22.50;53.68;100437.25;;;;-59
2019/08/02 10:04:11;;;;;;;3.73;2.57;;;;;;;22.52;53.68;100439.06;;;;-59
2019/08/02 10:07:11;;;;;;;4.45;2.45;;;;;;;22.53;53.68;100431.29;;;;-59
2019/08/02 10:10:11;;;;;;;3.05;2.58;;;;;;;22.54;53.70;100428.36;;;;-59
2019/08/02 10:13:11;;;;;;;3.40;2.67;;;;;;;22.57;53.66;100432.45;;;;-58
2019/08/02 10:16:11;;;;;;;3.99;2.41;;;;;;;22.58;53.55;100431.98;;;;-58
2019/08/02 10:19:10;;;;;;;3.29;2.47;;;;;;;22.59;53.58;100435.08;;;;-57
2019/08/02 10:22:11;;;;;;;4.48;2.39;;;;;;;22.59;53.57;100433.30;;;;-56
2019/08/02 10:25:10;;;;;;;2.95;2.52;;;;;;;22.62;53.53;100429.75;;;;-56
2019/08/02 10:28:11;;;;;;;4.61;2.57;;;;;;;22.63;53.58;100425.84;;;;-57
2019/08/02 10:31:14;;;;;;;3.37;2.51;;;;;;;22.62;53.51;100421.10;;;;-57
2019/08/02 10:34:11;;;;;;;3.65;2.48;;;;;;;22.65;53.64;100423.62;;;;-60
2019/08/02 10:37:10;;;;;;;3.31;2.47;;;;;;;22.67;53.68;100421.49;;;;-57
2019/08/02 10:40:10;;;;;;;3.49;2.27;;;;;;;22.68;53.64;100419.09;;;;-58
2019/08/02 10:43:10;;;;;;;2.69;2.47;;;;;;;22.69;53.67;100414.69;;;;-59
2019/08/02 10:46:10;;;;;;;3.17;2.49;;;;;;;22.70;53.66;100413.37;;;;-59
2019/08/02 10:49:11;;;;;;;2.80;2.50;;;;;;;22.72;53.69;100414.23;;;;-60
2019/08/02 10:52:11;;;;;;;4.15;2.46;;;;;;;22.73;53.63;100409.25;;;;-59
2019/08/02 10:55:11;;;;;;;4.85;2.37;;;;;;;22.74;53.62;100400.36;;;;-60
2019/08/02 10:58:11;;;;;;;4.81;2.58;;;;;;;22.74;53.53;100401.20;;;;-59
2019/08/02 11:01:12;;;;;;;3.11;2.39;;;;;;;22.76;53.59;100392.64;;;;-60
2019/08/02 11:04:11;;;;;;;2.88;2.45;;;;;;;22.75;53.50;100396.66;;;;-60
2019/08/02 11:07:11;;;;;;;3.64;2.30;;;;;;;22.75;53.47;100393.55;;;;-60
2019/08/02 11:10:10;;;;;;;3.14;2.42;;;;;;;22.75;53.44;100385.13;;;;-60
2019/08/02 11:13:11;;;;;;;5.45;2.43;;;;;;;22.75;53.39;100383.55;;;;-60
2019/08/02 11:16:11;;;;;;;2.95;2.31;;;;;;;22.75;53.36;100377.48;;;;-59
2019/08/02 11:19:10;;;;;;;3.15;2.32;;;;;;;22.76;53.34;100375.03;;;;-60
2019/08/02 11:22:11;;;;;;;2.40;2.20;;;;;;;22.76;53.32;100376.58;;;;-60
2019/08/02 11:25:10;;;;;;;4.11;2.27;;;;;;;22.76;53.28;100367.31;;;;-60
2019/08/02 11:28:10;;;;;;;2.68;2.22;;;;;;;22.76;53.27;100366.61;;;;-60
2019/08/02 11:31:10;;;;;;;3.70;2.28;;;;;;;22.76;53.25;100363.78;;;;-60
2019/08/02 11:34:10;;;;;;;3.73;2.38;;;;;;;22.76;53.33;100362.33;;;;-60
2019/08/02 11:37:11;;;;;;;4.23;2.45;;;;;;;22.77;53.32;100369.60;;;;-56
2019/08/02 11:40:10;;;;;;;4.78;2.37;;;;;;;22.79;53.41;100364.77;;;;-59
2019/08/02 11:43:11;;;;;;;4.90;2.38;;;;;;;22.78;53.29;100365.76;;;;-59
2019/08/02 11:46:11;;;;;;;4.60;2.30;;;;;;;22.79;53.45;100359.99;;;;-59
2019/08/02 11:49:10;;;;;;;3.33;2.40;;;;;;;22.80;53.32;100360.33;;;;-59
2019/08/02 11:52:10;;;;;;;2.51;2.31;;;;;;;22.79;53.39;100370.50;;;;-59
2019/08/02 11:55:10;;;;;;;3.93;2.37;;;;;;;22.79;53.35;100368.31;;;;-59
2019/08/02 11:58:10;;;;;;;3.85;2.30;;;;;;;22.80;53.32;100370.47;;;;-59
2019/08/02 12:01:14;;;;;;;2.50;2.21;;;;;;;22.80;53.25;100366.05;;;;-59
2019/08/02 12:04:10;;;;;;;7.17;2.38;;;;;;;22.81;53.33;100359.61;;;;-52
2019/08/02 12:07:11;;;;;;;6.06;2.36;;;;;;;22.81;53.16;100363.99;;;;-51
2019/08/02 12:10:10;;;;;;;6.65;2.45;;;;;;;22.82;53.25;100359.75;;;;-52
2019/08/02 12:13:10;;;;;;;5.73;2.50;;;;;;;22.82;53.27;100355.44;;;;-52
2019/08/02 12:16:11;;;;;;;5.38;2.31;;;;;;;22.83;53.23;100356.30;;;;-51
2019/08/02 12:19:13;;;;;;;5.89;2.19;;;;;;;22.83;53.24;100347.14;;;;-52
2019/08/02 12:22:34;;;;;;;3.10;2.12;;;;;;;22.83;53.13;100340.14;;;;-52
2019/08/02 12:25:11;;;;;;;4.29;2.28;;;;;;;22.83;53.18;100333.98;;;;-52
2019/08/02 12:28:11;;;;;;;3.49;2.34;;;;;;;22.83;53.15;100343.00;;;;-52
2019/08/02 12:31:11;;;;;;;3.11;2.23;;;;;;;22.84;53.16;100344.78;;;;-52
2019/08/02 12:34:10;;;;;;;3.28;2.20;;;;;;;22.85;53.14;100342.13;;;;-52
2019/08/02 12:37:10;;;;;;;5.01;2.49;;;;;;;22.84;53.13;100349.27;;;;-51
2019/08/02 12:40:11;;;;;;;4.10;2.20;;;;;;;22.84;53.12;100347.91;;;;-51
2019/08/02 12:43:10;;;;;;;7.53;2.51;;;;;;;22.85;53.32;100349.13;;;;-51
2019/08/02 12:46:10;;;;;;;3.95;2.20;;;;;;;22.87;53.30;100354.13;;;;-59
2019/08/02 12:49:10;;;;;;;6.60;2.27;;;;;;;22.89;53.38;100355.81;;;;-49
2019/08/02 12:52:11;;;;;;;6.11;2.35;;;;;;;22.90;53.44;100352.13;;;;-57
2019/08/02 12:55:10;;;;;;;6.04;2.35;;;;;;;22.92;53.48;100355.45;;;;-52
2019/08/02 12:58:10;;;;;;;5.51;2.25;;;;;;;22.94;53.53;100357.37;;;;-59
2019/08/02 13:01:10;;;;;;;6.54;2.30;;;;;;;22.94;53.34;100353.16;;;;-61
2019/08/02 13:04:10;;;;;;;3.91;2.17;;;;;;;22.95;53.49;100364.70;;;;-61
2019/08/02 13:07:11;;;;;;;5.67;2.28;;;;;;;22.94;53.57;100355.61;;;;-60
2019/08/02 13:10:10;;;;;;;5.40;2.22;;;;;;;22.96;53.54;100360.53;;;;-52
2019/08/02 13:13:10;;;;;;;7.46;2.45;;;;;;;22.98;53.48;100360.92;;;;-51
2019/08/02 13:16:11;;;;;;;7.11;2.20;;;;;;;22.99;53.49;100360.27;;;;-55
2019/08/02 13:19:11;;;;;;;5.29;2.12;;;;;;;22.99;53.55;100353.91;;;;-50
2019/08/02 13:22:10;;;;;;;5.80;2.29;;;;;;;23.01;53.54;100358.58;;;;-62
2019/08/02 13:25:10;;;;;;;5.87;2.07;;;;;;;23.00;53.44;100358.95;;;;-61
2019/08/02 13:28:10;;;;;;;6.52;2.11;;;;;;;22.99;53.45;100359.77;;;;-62
2019/08/02 13:31:10;;;;;;;3.10;2.26;;;;;;;23.00;53.52;100355.75;;;;-55
2019/08/02 13:34:10;;;;;;;3.47;2.19;;;;;;;22.99;53.46;100354.75;;;;-54
2019/08/02 13:37:11;;;;;;;5.49;2.24;;;;;;;22.99;53.42;100357.52;;;;-54
2019/08/02 13:40:11;;;;;;;4.51;2.37;;;;;;;23.00;53.43;100361.25;;;;-54
2019/08/02 13:43:10;;;;;;;4.23;2.06;;;;;;;22.99;53.40;100359.80;;;;-55
2019/08/02 13:46:10;;;;;;;7.20;2.17;;;;;;;22.99;53.38;100359.59;;;;-54
2019/08/02 13:49:10;;;;;;;4.99;2.24;;;;;;;22.99;53.37;100358.52;;;;-52
2019/08/02 13:52:10;;;;;;;3.27;2.12;;;;;;;22.99;53.34;100353.30;;;;-53
2019/08/02 13:55:11;;;;;;;3.45;2.10;;;;;;;22.99;53.36;100348.25;;;;-52
2019/08/02 13:58:10;;;;;;;3.63;2.20;;;;;;;22.99;53.34;100341.44;;;;-52
2019/08/02 14:01:10;;;;;;;5.71;2.27;;;;;;;22.98;53.33;100336.02;;;;-52
2019/08/02 14:04:10;;;;;;;3.77;2.11;;;;;;;22.99;53.31;100327.36;;;;-52
2019/08/02 14:07:11;;;;;;;4.66;2.01;;;;;;;23.00;53.30;100323.69;;;;-53
2019/08/02 14:10:10;;;;;;;3.36;2.06;;;;;;;22.99;53.33;100318.36;;;;-53
2019/08/02 14:13:10;;;;;;;3.28;2.04;;;;;;;22.99;53.34;100319.38;;;;-52
2019/08/02 14:16:10;;;;;;;3.43;2.10;;;;;;;23.00;53.30;100317.63;;;;-52
2019/08/02 14:19:10;;;;;;;5.21;2.21;;;;;;;23.00;53.41;100311.99;;;;-51
2019/08/02 14:22:11;;;;;;;3.19;2.13;;;;;;;23.01;53.34;100306.03;;;;-51
2019/08/02 14:25:11;;;;;;;3.73;2.01;;;;;;;23.02;53.47;100302.85;;;;-51
2019/08/02 14:28:10;;;;;;;4.04;2.02;;;;;;;23.03;53.55;100307.16;;;;-51
2019/08/02 14:31:12;;;;;;;5.05;2.11;;;;;;;23.06;53.73;100298.05;;;;-51
2019/08/02 14:34:11;;;;;;;3.37;2.19;;;;;;;23.06;53.91;100295.89;;;;-57
2019/08/02 14:37:10;;;;;;;7.37;2.05;;;;;;;23.06;53.73;100293.46;;;;-52
2019/08/02 14:40:11;;;;;;;3.98;2.03;;;;;;;23.08;53.74;100294.02;;;;-57
2019/08/02 14:43:11;;;;;;;3.79;2.13;;;;;;;23.08;53.79;100299.66;;;;-52
2019/08/02 14:46:10;;;;;;;3.66;2.09;;;;;;;23.10;53.89;100304.52;;;;-49
2019/08/02 14:49:10;;;;;;;4.16;2.18;;;;;;;23.10;53.92;100300.81;;;;-49
2019/08/02 14:52:10;;;;;;;3.26;2.09;;;;;;;23.11;53.86;100298.58;;;;-50
2019/08/02 14:55:10;;;;;;;4.33;2.22;;;;;;;23.12;53.98;100295.64;;;;-54
2019/08/02 14:58:10;;;;;;;4.50;2.24;;;;;;;23.15;53.96;100294.63;;;;-54
2019/08/02 15:01:10;;;;;;;5.17;2.18;;;;;;;23.16;54.04;100292.73;;;;-51
2019/08/02 15:04:10;;;;;;;3.36;2.13;;;;;;;23.17;54.02;100291.00;;;;-53
2019/08/02 15:07:11;;;;;;;13.21;2.56;;;;;;;23.18;53.77;100287.22;;;;-51
2019/08/02 15:10:10;;;;;;;6.53;2.22;;;;;;;23.16;54.07;100283.73;;;;-57
2019/08/02 15:13:10;;;;;;;6.49;2.33;;;;;;;23.17;54.11;100274.05;;;;-58
2019/08/02 15:16:10;;;;;;;3.71;2.21;;;;;;;23.18;54.07;100273.56;;;;-58
2019/08/02 15:19:10;;;;;;;7.22;2.35;;;;;;;23.17;54.04;100280.05;;;;-54
2019/08/02 15:22:11;;;;;;;6.53;2.27;;;;;;;23.18;53.89;100277.78;;;;-58
2019/08/02 15:25:11;;;;;;;5.02;2.31;;;;;;;23.18;53.71;100282.16;;;;-60
2019/08/02 15:28:10;;;;;;;6.06;2.43;;;;;;;23.18;54.03;100297.39;;;;-53
2019/08/02 15:31:11;;;;;;;6.63;2.24;;;;;;;23.18;53.87;100306.33;;;;-57
2019/08/02 15:34:10;;;;;;;6.06;2.58;;;;;;;23.19;53.95;100309.72;;;;-57
2019/08/02 15:37:10;;;;;;;5.41;2.34;;;;;;;23.20;53.93;100312.20;;;;-56
2019/08/02 15:40:10;;;;;;;3.35;2.43;;;;;;;23.20;53.82;100318.27;;;;-58
2019/08/02 15:43:10;;;;;;;6.86;2.67;;;;;;;23.21;53.91;100314.93;;;;-52
2019/08/02 15:46:10;;;;;;;5.95;2.57;;;;;;;23.21;53.91;100302.52;;;;-52
2019/08/02 15:49:10;;;;;;;7.20;2.89;;;;;;;23.21;53.85;100311.22;;;;-52
2019/08/02 15:52:10;;;;;;;3.78;2.68;;;;;;;23.21;53.96;100310.11;;;;-51
2019/08/02 15:55:10;;;;;;;6.94;2.48;;;;;;;23.22;53.75;100308.55;;;;-51
2019/08/02 15:58:11;;;;;;;2.99;2.27;;;;;;;23.22;53.96;100309.62;;;;-54
2019/08/02 16:01:10;;;;;;;5.19;2.70;;;;;;;23.23;53.94;100306.80;;;;-54
2019/08/02 16:04:11;;;;;;;6.20;2.47;;;;;;;23.23;53.88;100310.67;;;;-54
2019/08/02 16:07:10;;;;;;;4.05;2.40;;;;;;;23.22;53.83;100312.59;;;;-53
2019/08/02 16:10:10;;;;;;;9.82;2.50;;;;;;;23.21;53.86;100318.30;;;;-51
2019/08/02 16:13:11;;;;;;;5.79;2.44;;;;;;;23.23;53.83;100319.70;;;;-57
2019/08/02 16:16:10;;;;;;;4.23;2.45;;;;;;;23.23;53.88;100321.38;;;;-55
2019/08/02 16:19:10;;;;;;;4.51;2.47;;;;;;;23.25;53.86;100327.34;;;;-56
2019/08/02 16:22:10;;;;;;;5.98;2.54;;;;;;;23.27;53.85;100321.48;;;;-51
2019/08/02 16:25:11;;;;;;;4.71;2.36;;;;;;;23.28;53.86;100318.48;;;;-59
2019/08/02 16:28:10;;;;;;;2.81;2.16;;;;;;;23.29;53.95;100316.96;;;;-49
2019/08/02 16:31:11;;;;;;;6.15;2.58;;;;;;;23.29;53.94;100317.80;;;;-49
2019/08/02 16:34:10;;;;;;;6.72;2.57;;;;;;;23.30;53.92;100321.47;;;;-49
2019/08/02 16:37:10;;;;;;;3.63;2.45;;;;;;;23.31;54.00;100303.53;;;;-50
2019/08/02 16:40:10;;;;;;;6.10;2.44;;;;;;;23.30;53.95;100302.80;;;;-50
2019/08/02 16:43:10;;;;;;;5.07;2.39;;;;;;;23.31;53.98;100301.45;;;;-57
2019/08/02 16:50:15;;;;;;;5.20;2.39;;;;;;;23.33;54.09;100284.37;;;;-52
2019/08/02 16:53:11;;;;;;;5.49;2.30;;;;;;;23.33;54.03;100280.09;;;;-50